Time;durP1;ratioP1;P1;durP2;ratioP2;P2;SDS_P1;SDS_P2;PMS_P1;PMS_P2;Temp;Humidity;BMP_temperature;BMP_pressure;BME280_temperature;BME280_humidity;BME280_pressure;Samples;Min_cycle;Max_cycle;Signal;HPM_P1;HPM_P2
2021/06/16 00:01:54;;;;;;;3.67;2.23;;;;;;;;;;5136549;28;20279;-65
2021/06/16 00:04:22;;;;;;;3.13;2.07;;;;;;;;;;5138646;28;20407;-66
2021/06/16 00:06:51;;;;;;;4.03;2.20;;;;;;;;;;5137027;28;20207;-65
2021/06/16 00:09:19;;;;;;;4.43;2.27;;;;;;;;;;5134383;28;20198;-66
2021/06/16 00:11:48;;;;;;;2.50;2.30;;;;;;;;;;5134504;28;20216;-66
2021/06/16 00:14:17;;;;;;;2.63;1.93;;;;;;;;;;5130269;28;20199;-66
2021/06/16 00:16:45;;;;;;;3.17;1.97;;;;;;;;;;5137336;28;20202;-66
2021/06/16 00:19:13;;;;;;;3.33;2.53;;;;;;;;;;5138646;28;20254;-66
2021/06/16 00:21:40;;;;;;;2.30;2.10;;;;;;;;;;5137316;28;20217;-67
2021/06/16 00:24:08;;;;;;;3.33;1.90;;;;;;;;;;5138363;28;20199;-67
2021/06/16 00:26:36;;;;;;;2.40;2.20;;;;;;;;;;5136470;28;20196;-67
2021/06/16 00:29:04;;;;;;;2.60;2.40;;;;;;;;;;5137667;28;20205;-67
2021/06/16 00:31:33;;;;;;;2.40;2.20;;;;;;;;;;5137047;28;20951;-67
2021/06/16 00:34:01;;;;;;;3.33;2.20;;;;;;;;;;5125054;28;20239;-67
2021/06/16 00:36:30;;;;;;;2.43;2.23;;;;;;;;;;5137474;28;20245;-67
2021/06/16 00:38:59;;;;;;;3.03;2.20;;;;;;;;;;5136875;27;20227;-67
2021/06/16 00:41:27;;;;;;;4.30;2.10;;;;;;;;;;5141725;27;20231;-67
2021/06/16 00:43:55;;;;;;;3.90;2.00;;;;;;;;;;5141048;27;20204;-67
2021/06/16 00:46:22;;;;;;;4.47;2.77;;;;;;;;;;5140883;27;20263;-67
2021/06/16 00:48:52;;;;;;;2.30;1.97;;;;;;;;;;5140942;27;20233;-67
2021/06/16 00:51:19;;;;;;;2.83;2.60;;;;;;;;;;5141256;27;20228;-67
2021/06/16 00:53:47;;;;;;;3.37;2.37;;;;;;;;;;5141708;27;20655;-67
2021/06/16 00:56:16;;;;;;;2.53;2.07;;;;;;;;;;5139820;27;20256;-67
2021/06/16 00:58:44;;;;;;;2.67;2.47;;;;;;;;;;5139168;27;20227;-67
2021/06/16 01:01:14;;;;;;;4.47;2.50;;;;;;;;;;5128132;27;20566;-67
2021/06/16 01:03:44;;;;;;;2.50;2.07;;;;;;;;;;5130321;27;20259;-66
2021/06/16 01:06:18;;;;;;;2.43;2.10;;;;;;;;;;5140967;27;20211;-66
2021/06/16 01:08:51;;;;;;;3.20;2.50;;;;;;;;;;5141363;27;20236;-66
2021/06/16 01:11:18;;;;;;;2.73;2.13;;;;;;;;;;5139546;27;20256;-66
2021/06/16 01:13:49;;;;;;;3.50;2.17;;;;;;;;;;5130324;27;20232;-66
2021/06/16 01:16:19;;;;;;;3.77;2.37;;;;;;;;;;5139361;27;20539;-66
2021/06/16 01:18:48;;;;;;;3.87;2.30;;;;;;;;;;5139505;27;20735;-66
2021/06/16 01:21:17;;;;;;;6.43;2.33;;;;;;;;;;5137460;27;20623;-66
2021/06/16 01:24:00;;;;;;;3.77;2.20;;;;;;;;;;5141013;27;20231;-66
2021/06/16 01:26:29;;;;;;;3.17;2.20;;;;;;;;;;5135987;27;20202;-66
2021/06/16 01:29:03;;;;;;;4.50;2.57;;;;;;;;;;5140898;27;20259;-66
2021/06/16 01:31:32;;;;;;;4.27;2.40;;;;;;;;;;5138568;27;20239;-66
2021/06/16 01:34:01;;;;;;;3.37;2.63;;;;;;;;;;5140055;27;20216;-66
2021/06/16 01:36:29;;;;;;;5.00;2.73;;;;;;;;;;5140588;27;20211;-66
2021/06/16 01:38:57;;;;;;;5.50;2.50;;;;;;;;;;5139660;27;20221;-66
2021/06/16 01:41:25;;;;;;;3.30;2.83;;;;;;;;;;5138717;27;20220;-66
2021/06/16 01:43:56;;;;;;;6.10;3.10;;;;;;;;;;5140828;27;20263;-66
2021/06/16 01:46:25;;;;;;;4.03;2.40;;;;;;;;;;5138856;27;20202;-66
2021/06/16 01:48:53;;;;;;;5.00;2.30;;;;;;;;;;5140667;27;20228;-66
2021/06/16 01:51:22;;;;;;;3.77;2.60;;;;;;;;;;5134664;27;20274;-66
2021/06/16 01:53:51;;;;;;;2.80;2.50;;;;;;;;;;5133133;27;20194;-66
2021/06/16 01:56:20;;;;;;;3.60;2.77;;;;;;;;;;5135906;27;20204;-66
2021/06/16 01:58:48;;;;;;;4.70;3.03;;;;;;;;;;5131118;27;20634;-66
2021/06/16 02:01:18;;;;;;;3.10;2.77;;;;;;;;;;5136916;27;20739;-66
2021/06/16 02:03:46;;;;;;;3.10;2.80;;;;;;;;;;5138246;27;20192;-67
2021/06/16 02:06:16;;;;;;;3.83;3.00;;;;;;;;;;5139252;27;20247;-66
2021/06/16 02:08:46;;;;;;;6.83;2.87;;;;;;;;;;5138451;27;20196;-66
2021/06/16 02:11:16;;;;;;;6.37;2.53;;;;;;;;;;5135549;27;20214;-66
2021/06/16 02:13:46;;;;;;;4.10;2.67;;;;;;;;;;5133763;27;20198;-66
2021/06/16 02:16:15;;;;;;;4.53;3.10;;;;;;;;;;5138287;27;20250;-66
2021/06/16 02:18:45;;;;;;;6.07;2.73;;;;;;;;;;5139274;27;20248;-66
2021/06/16 02:21:13;;;;;;;5.17;2.93;;;;;;;;;;5133320;27;20219;-66
2021/06/16 02:23:41;;;;;;;4.57;2.80;;;;;;;;;;5129135;27;20206;-66
2021/06/16 02:26:09;;;;;;;6.43;3.03;;;;;;;;;;5138433;27;20196;-66
2021/06/16 02:28:37;;;;;;;2.93;2.70;;;;;;;;;;5122217;27;20230;-66
2021/06/16 02:31:05;;;;;;;5.27;2.87;;;;;;;;;;5136250;27;20261;-65
2021/06/16 02:33:33;;;;;;;5.77;3.03;;;;;;;;;;5137872;27;20207;-65
2021/06/16 02:36:03;;;;;;;3.77;3.00;;;;;;;;;;5136814;27;20248;-65
2021/06/16 02:38:32;;;;;;;4.37;2.80;;;;;;;;;;5136667;27;20254;-66
2021/06/16 02:41:01;;;;;;;3.17;2.87;;;;;;;;;;5136884;27;20225;-66
2021/06/16 02:43:29;;;;;;;4.23;2.90;;;;;;;;;;5136381;27;20205;-65
2021/06/16 02:46:01;;;;;;;5.17;2.80;;;;;;;;;;5137855;27;20207;-66
2021/06/16 02:48:30;;;;;;;6.17;3.13;;;;;;;;;;5139133;27;20213;-66
2021/06/16 02:50:58;;;;;;;4.63;3.23;;;;;;;;;;5134441;27;20206;-66
2021/06/16 02:53:28;;;;;;;5.87;2.80;;;;;;;;;;5137232;27;20228;-66
2021/06/16 02:55:56;;;;;;;4.97;3.17;;;;;;;;;;5137035;27;20194;-66
2021/06/16 02:58:25;;;;;;;8.43;3.17;;;;;;;;;;5137792;27;20234;-67
2021/06/16 03:00:55;;;;;;;7.13;3.00;;;;;;;;;;5137396;27;20206;-67
2021/06/16 03:03:24;;;;;;;3.37;3.07;;;;;;;;;;5136844;27;20232;-66
2021/06/16 03:05:52;;;;;;;6.83;3.33;;;;;;;;;;5135671;27;20586;-66
2021/06/16 03:08:21;;;;;;;5.33;2.80;;;;;;;;;;5137064;27;20226;-67
2021/06/16 03:10:50;;;;;;;5.30;3.47;;;;;;;;;;5135138;27;20197;-67
2021/06/16 03:13:19;;;;;;;4.93;3.90;;;;;;;;;;5133395;27;20217;-67
2021/06/16 03:15:47;;;;;;;8.30;3.33;;;;;;;;;;5137493;27;20254;-67
2021/06/16 03:18:15;;;;;;;7.17;3.57;;;;;;;;;;5136565;27;20194;-66
2021/06/16 03:20:43;;;;;;;6.10;3.90;;;;;;;;;;5134728;27;20205;-67
2021/06/16 03:23:12;;;;;;;11.97;4.43;;;;;;;;;;5134564;27;20249;-67
2021/06/16 03:25:40;;;;;;;5.83;3.83;;;;;;;;;;5136713;27;20662;-66
2021/06/16 03:28:09;;;;;;;7.97;3.50;;;;;;;;;;5137437;27;20779;-67
2021/06/16 03:30:37;;;;;;;6.00;3.50;;;;;;;;;;5136268;27;20196;-66
2021/06/16 03:33:05;;;;;;;7.50;3.30;;;;;;;;;;5134671;27;20228;-67
2021/06/16 03:35:33;;;;;;;5.43;3.40;;;;;;;;;;5137766;28;20243;-67
2021/06/16 03:38:01;;;;;;;9.60;3.60;;;;;;;;;;5138482;28;20260;-67
2021/06/16 03:40:30;;;;;;;4.47;3.07;;;;;;;;;;5137320;28;20243;-67
2021/06/16 03:42:59;;;;;;;9.30;3.10;;;;;;;;;;5137691;28;20219;-65
2021/06/16 03:45:29;;;;;;;6.63;2.80;;;;;;;;;;5137088;28;20318;-67
2021/06/16 03:47:59;;;;;;;3.30;3.00;;;;;;;;;;5137240;28;20201;-67
2021/06/16 03:50:27;;;;;;;3.90;3.07;;;;;;;;;;5135202;28;20237;-66
2021/06/16 03:52:55;;;;;;;3.27;2.70;;;;;;;;;;5137622;28;20231;-67
2021/06/16 03:55:23;;;;;;;5.37;3.43;;;;;;;;;;5137308;28;20199;-68
2021/06/16 03:57:51;;;;;;;5.03;2.57;;;;;;;;;;5138055;28;20261;-67
2021/06/16 04:00:20;;;;;;;5.93;3.00;;;;;;;;;;5136163;28;20223;-68
2021/06/16 04:02:49;;;;;;;4.17;2.73;;;;;;;;;;5119163;28;20228;-67
2021/06/16 04:05:17;;;;;;;3.57;2.57;;;;;;;;;;5138280;28;20211;-68
2021/06/16 04:07:48;;;;;;;7.73;2.50;;;;;;;;;;5134365;28;20205;-67
2021/06/16 04:10:16;;;;;;;6.60;2.70;;;;;;;;;;5138146;28;20265;-66
2021/06/16 04:12:45;;;;;;;4.30;3.53;;;;;;;;;;5135401;28;20220;-67
2021/06/16 04:15:14;;;;;;;4.97;2.60;;;;;;;;;;5136265;27;20199;-67
2021/06/16 04:17:41;;;;;;;3.10;2.60;;;;;;;;;;5140472;27;20196;-67
2021/06/16 04:20:11;;;;;;;5.17;2.60;;;;;;;;;;5139927;27;20551;-67
2021/06/16 04:22:40;;;;;;;7.77;2.83;;;;;;;;;;5141362;27;20694;-67
2021/06/16 04:25:09;;;;;;;5.43;2.77;;;;;;;;;;5141427;27;20654;-67
2021/06/16 04:27:37;;;;;;;5.27;3.30;;;;;;;;;;5141401;27;20211;-67
2021/06/16 04:30:05;;;;;;;4.13;2.57;;;;;;;;;;5142349;27;20557;-67
2021/06/16 04:32:34;;;;;;;3.07;2.57;;;;;;;;;;5140471;27;20245;-67
2021/06/16 04:35:02;;;;;;;6.93;3.00;;;;;;;;;;5141132;27;20270;-67
2021/06/16 04:37:31;;;;;;;3.47;2.67;;;;;;;;;;5141994;27;20206;-67
2021/06/16 04:39:59;;;;;;;3.23;2.70;;;;;;;;;;5141104;27;20220;-67
2021/06/16 04:42:26;;;;;;;3.27;2.60;;;;;;;;;;5141896;27;20772;-67
2021/06/16 04:44:54;;;;;;;9.53;2.83;;;;;;;;;;5139426;27;20196;-67
2021/06/16 04:47:22;;;;;;;4.53;2.87;;;;;;;;;;5141391;27;20206;-67
2021/06/16 04:49:50;;;;;;;5.83;3.00;;;;;;;;;;5140094;27;20196;-67
2021/06/16 04:52:18;;;;;;;3.10;2.70;;;;;;;;;;5141691;27;20272;-66
2021/06/16 04:54:47;;;;;;;4.53;2.90;;;;;;;;;;5140643;27;20222;-67
2021/06/16 04:57:14;;;;;;;8.13;2.93;;;;;;;;;;5141456;27;20256;-67
2021/06/16 04:59:42;;;;;;;9.97;2.67;;;;;;;;;;5140034;27;20268;-66
2021/06/16 05:02:10;;;;;;;4.97;3.00;;;;;;;;;;5140428;27;20219;-66
2021/06/16 05:04:38;;;;;;;6.80;3.00;;;;;;;;;;5140975;27;20211;-67
2021/06/16 05:07:06;;;;;;;3.77;2.73;;;;;;;;;;5141120;27;20208;-67
2021/06/16 05:09:33;;;;;;;4.67;3.10;;;;;;;;;;5140821;27;20323;-66
2021/06/16 05:12:03;;;;;;;6.30;3.23;;;;;;;;;;5135646;27;20220;-67
2021/06/16 05:14:30;;;;;;;3.03;2.80;;;;;;;;;;5135525;27;20255;-67
2021/06/16 05:16:58;;;;;;;7.50;2.97;;;;;;;;;;5140380;27;20222;-67
2021/06/16 05:19:26;;;;;;;3.33;3.03;;;;;;;;;;5138663;27;20196;-68
2021/06/16 05:21:54;;;;;;;3.50;2.90;;;;;;;;;;5126490;27;20223;-68
2021/06/16 05:24:23;;;;;;;4.30;3.23;;;;;;;;;;5139390;27;20201;-72
2021/06/16 05:26:51;;;;;;;4.90;3.00;;;;;;;;;;5139686;27;20252;-72
2021/06/16 05:29:20;;;;;;;5.43;3.10;;;;;;;;;;5139960;27;20215;-72
2021/06/16 05:31:48;;;;;;;4.20;3.17;;;;;;;;;;5139555;27;20231;-72
2021/06/16 05:34:16;;;;;;;7.27;3.23;;;;;;;;;;5126918;27;20197;-72
2021/06/16 05:36:43;;;;;;;6.23;3.00;;;;;;;;;;5139396;27;20648;-71
2021/06/16 05:39:11;;;;;;;6.70;3.23;;;;;;;;;;5140630;27;20210;-68
2021/06/16 05:41:39;;;;;;;6.70;3.07;;;;;;;;;;5138144;27;20250;-66
2021/06/16 05:44:07;;;;;;;6.80;3.13;;;;;;;;;;5139794;27;20254;-66
2021/06/16 05:46:36;;;;;;;4.77;3.30;;;;;;;;;;5140368;27;20334;-66
2021/06/16 05:49:04;;;;;;;3.50;2.83;;;;;;;;;;5140048;27;20295;-66
2021/06/16 05:51:32;;;;;;;4.23;3.03;;;;;;;;;;5134774;27;20252;-66
2021/06/16 05:54:00;;;;;;;4.53;3.23;;;;;;;;;;5138957;27;20200;-64
2021/06/16 05:56:27;;;;;;;5.70;3.43;;;;;;;;;;5139556;27;20614;-66
2021/06/16 05:58:55;;;;;;;3.57;3.00;;;;;;;;;;5140030;27;20241;-65
2021/06/16 06:01:23;;;;;;;2.80;2.60;;;;;;;;;;5139236;27;20675;-64
2021/06/16 06:03:52;;;;;;;9.43;3.57;;;;;;;;;;5131585;27;20305;-66
2021/06/16 06:06:20;;;;;;;4.40;3.43;;;;;;;;;;5130026;27;20198;-64
2021/06/16 06:08:48;;;;;;;3.07;2.80;;;;;;;;;;5135210;27;20201;-66
2021/06/16 06:11:16;;;;;;;5.43;3.77;;;;;;;;;;5138615;27;20746;-66
2021/06/16 06:13:44;;;;;;;7.77;2.90;;;;;;;;;;5131343;27;20202;-66
2021/06/16 06:16:12;;;;;;;4.17;2.83;;;;;;;;;;5134879;27;20201;-64
2021/06/16 06:18:39;;;;;;;6.90;3.23;;;;;;;;;;5130975;27;20210;-66
2021/06/16 06:21:09;;;;;;;4.77;3.10;;;;;;;;;;5131394;27;20685;-66
2021/06/16 06:23:36;;;;;;;4.60;3.17;;;;;;;;;;5133416;27;20225;-66
2021/06/16 06:26:04;;;;;;;3.73;3.30;;;;;;;;;;5136536;27;20206;-67
2021/06/16 06:28:32;;;;;;;9.23;3.30;;;;;;;;;;5133676;27;20205;-67
2021/06/16 06:31:00;;;;;;;5.17;3.10;;;;;;;;;;5129640;27;20594;-68
2021/06/16 06:33:27;;;;;;;4.53;3.30;;;;;;;;;;5136872;27;20244;-67
2021/06/16 06:35:55;;;;;;;7.27;3.53;;;;;;;;;;5138130;27;20256;-68
2021/06/16 06:38:24;;;;;;;5.60;3.03;;;;;;;;;;5137712;27;20264;-67
2021/06/16 06:40:52;;;;;;;4.30;3.07;;;;;;;;;;5137798;27;20695;-67
2021/06/16 06:43:20;;;;;;;5.90;3.70;;;;;;;;;;5137373;27;20261;-67
2021/06/16 06:45:48;;;;;;;8.13;3.57;;;;;;;;;;5136938;27;20718;-66
2021/06/16 06:48:15;;;;;;;5.63;3.63;;;;;;;;;;5138015;27;20202;-68
2021/06/16 06:50:43;;;;;;;5.63;3.33;;;;;;;;;;5137970;27;20230;-67
2021/06/16 06:53:11;;;;;;;9.80;3.83;;;;;;;;;;5137544;27;20761;-67
2021/06/16 06:55:41;;;;;;;7.50;3.40;;;;;;;;;;5137965;27;20199;-67
2021/06/16 06:58:09;;;;;;;3.97;3.30;;;;;;;;;;5139141;27;20208;-67
2021/06/16 07:00:37;;;;;;;3.80;3.20;;;;;;;;;;5137153;27;20226;-67
2021/06/16 07:03:05;;;;;;;4.13;3.30;;;;;;;;;;5135158;27;20219;-66
2021/06/16 07:05:33;;;;;;;6.87;3.13;;;;;;;;;;5129552;27;20206;-67
2021/06/16 07:08:00;;;;;;;5.80;3.30;;;;;;;;;;5132697;27;20195;-67
2021/06/16 07:10:29;;;;;;;4.53;3.00;;;;;;;;;;5131537;27;20203;-66
2021/06/16 07:12:58;;;;;;;4.07;3.00;;;;;;;;;;5133012;27;20251;-68
2021/06/16 07:15:26;;;;;;;4.80;3.00;;;;;;;;;;5129852;27;20214;-68
2021/06/16 07:17:54;;;;;;;3.20;2.80;;;;;;;;;;5136428;27;20205;-65
2021/06/16 07:20:22;;;;;;;3.90;2.90;;;;;;;;;;5137942;27;20280;-66
2021/06/16 07:22:50;;;;;;;2.60;2.40;;;;;;;;;;5136360;27;20280;-68
2021/06/16 07:25:19;;;;;;;4.40;2.97;;;;;;;;;;5138892;27;20209;-67
2021/06/16 07:27:47;;;;;;;5.33;2.33;;;;;;;;;;5136877;27;20262;-66
2021/06/16 07:30:17;;;;;;;3.93;3.10;;;;;;;;;;5124512;27;20228;-68
2021/06/16 07:32:45;;;;;;;3.53;2.87;;;;;;;;;;5135693;27;20238;-68
2021/06/16 07:35:13;;;;;;;2.57;2.37;;;;;;;;;;5138337;27;20205;-67
2021/06/16 07:37:41;;;;;;;5.20;2.67;;;;;;;;;;5125292;28;20553;-67
2021/06/16 07:40:10;;;;;;;3.23;2.93;;;;;;;;;;5138671;28;20230;-67
2021/06/16 07:42:40;;;;;;;4.00;2.57;;;;;;;;;;5133479;28;20249;-66
2021/06/16 07:45:09;;;;;;;4.83;2.93;;;;;;;;;;5130852;28;20193;-66
2021/06/16 07:47:39;;;;;;;5.60;2.67;;;;;;;;;;5128991;28;20242;-66
2021/06/16 07:50:08;;;;;;;4.60;2.97;;;;;;;;;;5132809;27;20597;-68
2021/06/16 07:52:36;;;;;;;7.07;3.20;;;;;;;;;;5135135;27;20296;-67
2021/06/16 07:55:04;;;;;;;4.27;2.60;;;;;;;;;;5134579;27;20565;-67
2021/06/16 07:57:32;;;;;;;6.53;3.07;;;;;;;;;;5134511;27;20334;-66
2021/06/16 08:00:00;;;;;;;7.17;3.23;;;;;;;;;;5136998;27;20253;-66
2021/06/16 08:02:29;;;;;;;10.10;3.17;;;;;;;;;;5135003;27;20218;-67
2021/06/16 08:04:59;;;;;;;10.53;3.70;;;;;;;;;;5135022;27;20200;-66
2021/06/16 08:07:27;;;;;;;3.27;2.83;;;;;;;;;;5138021;27;20255;-66
2021/06/16 08:09:55;;;;;;;3.63;3.13;;;;;;;;;;5140648;27;20211;-66
2021/06/16 08:12:23;;;;;;;7.10;2.87;;;;;;;;;;5132722;27;20257;-66
2021/06/16 08:14:51;;;;;;;5.10;3.00;;;;;;;;;;5137059;27;20243;-68
2021/06/16 08:17:19;;;;;;;2.97;2.70;;;;;;;;;;5140366;27;20237;-66
2021/06/16 08:19:47;;;;;;;3.30;3.00;;;;;;;;;;5141911;27;20212;-66
2021/06/16 08:22:18;;;;;;;7.10;3.40;;;;;;;;;;5140706;27;20294;-66
2021/06/16 08:24:46;;;;;;;8.52;3.67;;;;;;;;;;5142126;27;20544;-67
2021/06/16 08:27:14;;;;;;;6.13;3.93;;;;;;;;;;5137704;27;20206;-67
2021/06/16 08:29:41;;;;;;;5.73;3.20;;;;;;;;;;5134625;27;20225;-67
2021/06/16 08:32:09;;;;;;;3.67;3.20;;;;;;;;;;5136230;27;20233;-67
2021/06/16 08:34:37;;;;;;;4.70;3.43;;;;;;;;;;5135671;27;20203;-67
2021/06/16 08:37:05;;;;;;;6.63;3.47;;;;;;;;;;5135247;27;20196;-67
2021/06/16 08:39:34;;;;;;;6.37;3.53;;;;;;;;;;5139678;27;20210;-65
2021/06/16 08:42:02;;;;;;;7.55;3.65;;;;;;;;;;5137699;27;20216;-65
2021/06/16 08:44:31;;;;;;;5.93;3.83;;;;;;;;;;5138719;27;20245;-65
2021/06/16 08:46:59;;;;;;;5.80;3.77;;;;;;;;;;5138994;27;20214;-66
2021/06/16 08:49:27;;;;;;;7.57;3.40;;;;;;;;;;5139056;27;20672;-66
2021/06/16 08:51:57;;;;;;;5.50;3.53;;;;;;;;;;5140485;27;20217;-65
2021/06/16 08:54:25;;;;;;;6.80;3.40;;;;;;;;;;5141160;27;20235;-65
2021/06/16 08:56:54;;;;;;;18.80;6.00;;;;;;;;;;5139800;27;20341;-66
2021/06/16 08:59:22;;;;;;;5.05;2.97;;;;;;;;;;5140901;27;20205;-67
2021/06/16 09:01:50;;;;;;;8.60;3.57;;;;;;;;;;5137202;27;20263;-68
2021/06/16 09:04:48;;;;;;;5.87;3.30;;;;;;;;;;5141265;27;20206;-70
2021/06/16 09:07:16;;;;;;;12.30;4.15;;;;;;;;;;5035605;28;20244;-69
2021/06/16 09:09:46;;;;;;;5.63;3.58;;;;;;;;;;5118487;27;20211;-69
2021/06/16 09:12:18;;;;;;;5.07;3.65;;;;;;;;;;5140193;27;20265;-69
2021/06/16 09:14:50;;;;;;;4.38;3.17;;;;;;;;;;5138626;27;20258;-69
2021/06/16 09:17:22;;;;;;;5.13;3.22;;;;;;;;;;5136751;27;20205;-68
2021/06/16 09:19:54;;;;;;;8.80;4.90;;;;;;;;;;5140912;27;20208;-68
2021/06/16 09:22:30;;;;;;;8.18;4.30;;;;;;;;;;5139477;27;20228;-69
2021/06/16 09:25:00;;;;;;;5.32;3.40;;;;;;;;;;5138465;27;20203;-68
2021/06/16 09:27:43;;;;;;;3.88;3.47;;;;;;;;;;5139916;27;20213;-70
2021/06/16 09:30:27;;;;;;;3.50;2.95;;;;;;;;;;5129703;27;20697;-68
2021/06/16 09:32:58;;;;;;;10.32;3.40;;;;;;;;;;5129078;27;20239;-68
2021/06/16 09:35:27;;;;;;;7.00;3.17;;;;;;;;;;5135584;27;20250;-68
2021/06/16 09:37:55;;;;;;;7.65;3.28;;;;;;;;;;5129803;27;20256;-68
2021/06/16 09:40:26;;;;;;;6.93;3.05;;;;;;;;;;5136902;27;20196;-67
2021/06/16 09:42:59;;;;;;;3.72;3.13;;;;;;;;;;5139972;27;20233;-69
2021/06/16 09:45:27;;;;;;;4.70;2.90;;;;;;;;;;5139760;27;20210;-67
2021/06/16 09:47:55;;;;;;;4.05;3.63;;;;;;;;;;5133548;27;20563;-67
2021/06/16 09:50:23;;;;;;;5.13;3.50;;;;;;;;;;5133592;27;20700;-67
2021/06/16 09:52:51;;;;;;;2.75;2.55;;;;;;;;;;5133595;27;20216;-66
2021/06/16 09:55:27;;;;;;;4.40;3.60;;;;;;;;;;5127066;27;20659;-68
2021/06/16 09:58:04;;;;;;;6.95;3.17;;;;;;;;;;5138682;27;20600;-67
2021/06/16 10:00:33;;;;;;;4.90;3.22;;;;;;;;;;5139222;27;20253;-68
2021/06/16 10:03:20;;;;;;;4.47;3.25;;;;;;;;;;5138959;27;20231;-69
2021/06/16 10:06:08;;;;;;;3.55;3.15;;;;;;;;;;5139913;27;20217;-69
2021/06/16 10:08:37;;;;;;;3.92;3.60;;;;;;;;;;5137563;27;20199;-69
2021/06/16 10:11:05;;;;;;;4.82;2.80;;;;;;;;;;5138088;27;20257;-68
2021/06/16 10:13:34;;;;;;;3.78;3.15;;;;;;;;;;5132423;27;20223;-70
2021/06/16 10:16:03;;;;;;;3.40;3.10;;;;;;;;;;5137884;27;20231;-70
2021/06/16 10:18:34;;;;;;;3.40;3.10;;;;;;;;;;5127716;27;20263;-70
2021/06/16 10:21:02;;;;;;;9.32;3.15;;;;;;;;;;5138711;27;20655;-70
2021/06/16 10:23:30;;;;;;;5.28;3.10;;;;;;;;;;5137863;27;20219;-70
2021/06/16 10:26:02;;;;;;;5.72;3.33;;;;;;;;;;5138950;27;20200;-71
2021/06/16 10:28:46;;;;;;;3.63;2.65;;;;;;;;;;5138767;27;20319;-70
2021/06/16 10:31:15;;;;;;;2.83;2.60;;;;;;;;;;5138281;27;20254;-70
2021/06/16 10:33:43;;;;;;;4.05;2.90;;;;;;;;;;5126685;27;20195;-70
2021/06/16 10:36:15;;;;;;;3.65;2.83;;;;;;;;;;5139199;27;20200;-70
2021/06/16 10:39:04;;;;;;;4.43;3.33;;;;;;;;;;5126840;27;20234;-69
2021/06/16 10:41:47;;;;;;;7.20;3.15;;;;;;;;;;5136173;27;20248;-70
2021/06/16 10:44:19;;;;;;;5.80;3.13;;;;;;;;;;5133444;27;20277;-70
2021/06/16 10:46:51;;;;;;;3.35;3.05;;;;;;;;;;5138138;27;20196;-69
2021/06/16 10:49:34;;;;;;;3.53;3.15;;;;;;;;;;5138178;27;20200;-69
2021/06/16 10:52:02;;;;;;;5.55;2.97;;;;;;;;;;5132958;27;20223;-70
2021/06/16 10:54:30;;;;;;;5.15;2.80;;;;;;;;;;5129820;27;20192;-68
2021/06/16 10:57:11;;;;;;;3.97;3.65;;;;;;;;;;5129598;27;20553;-69
2021/06/16 10:59:53;;;;;;;4.50;3.35;;;;;;;;;;5132984;27;20205;-69
2021/06/16 11:02:43;;;;;;;3.63;3.08;;;;;;;;;;5131668;27;20264;-69
2021/06/16 11:05:21;;;;;;;4.15;2.83;;;;;;;;;;5131999;27;20823;-69
2021/06/16 11:07:49;;;;;;;3.85;3.55;;;;;;;;;;5132197;27;20196;-68
2021/06/16 11:10:16;;;;;;;3.60;2.80;;;;;;;;;;5125592;27;20233;-66
2021/06/16 11:12:45;;;;;;;3.63;3.35;;;;;;;;;;5128575;27;20622;-68
2021/06/16 11:15:29;;;;;;;3.78;3.17;;;;;;;;;;5137346;27;20263;-68
2021/06/16 11:17:59;;;;;;;3.35;3.05;;;;;;;;;;5126799;27;20200;-68
2021/06/16 11:20:28;;;;;;;3.40;3.20;;;;;;;;;;5137135;27;20208;-68
2021/06/16 11:22:56;;;;;;;4.22;3.30;;;;;;;;;;5137168;27;20270;-69
2021/06/16 11:25:35;;;;;;;5.90;3.20;;;;;;;;;;5136920;27;20604;-68
2021/06/16 11:28:10;;;;;;;3.42;3.10;;;;;;;;;;5131729;27;20650;-68
2021/06/16 11:30:40;;;;;;;3.00;2.70;;;;;;;;;;5135810;27;20200;-69
2021/06/16 11:33:27;;;;;;;2.97;2.78;;;;;;;;;;5136426;27;20758;-69
2021/06/16 11:35:59;;;;;;;3.65;2.85;;;;;;;;;;5123517;27;20203;-68
2021/06/16 11:38:29;;;;;;;4.57;3.17;;;;;;;;;;5129727;28;20196;-71
2021/06/16 11:40:58;;;;;;;3.60;3.30;;;;;;;;;;5131158;28;20204;-71
2021/06/16 11:43:30;;;;;;;3.67;3.13;;;;;;;;;;5133329;28;20240;-71
2021/06/16 11:45:57;;;;;;;3.97;3.20;;;;;;;;;;5138617;28;20257;-72
2021/06/16 11:48:25;;;;;;;5.13;2.80;;;;;;;;;;5136350;28;20206;-70
2021/06/16 11:50:53;;;;;;;4.93;2.78;;;;;;;;;;5138556;28;20199;-72
2021/06/16 11:53:30;;;;;;;3.60;3.30;;;;;;;;;;5137298;28;20192;-70
2021/06/16 11:56:01;;;;;;;3.15;2.95;;;;;;;;;;5138673;28;20583;-71
2021/06/16 11:58:30;;;;;;;5.00;3.65;;;;;;;;;;5137475;28;20200;-70
2021/06/16 12:01:05;;;;;;;5.20;3.03;;;;;;;;;;5135199;28;20200;-70
2021/06/16 12:03:33;;;;;;;4.78;3.20;;;;;;;;;;5131062;28;20220;-71
2021/06/16 12:06:02;;;;;;;5.18;2.88;;;;;;;;;;5132011;28;20204;-68
2021/06/16 12:08:31;;;;;;;3.63;3.20;;;;;;;;;;5131791;28;20204;-69
2021/06/16 12:11:00;;;;;;;3.75;3.42;;;;;;;;;;5134098;28;20261;-68
2021/06/16 12:13:29;;;;;;;4.65;3.45;;;;;;;;;;5128516;28;20207;-68
2021/06/16 12:15:57;;;;;;;4.55;3.33;;;;;;;;;;5137145;28;20249;-69
2021/06/16 12:18:31;;;;;;;3.92;3.10;;;;;;;;;;5132220;28;20569;-67
2021/06/16 12:20:59;;;;;;;3.67;3.17;;;;;;;;;;5128690;28;20268;-67
2021/06/16 12:23:29;;;;;;;4.20;2.90;;;;;;;;;;5128713;28;20216;-67
2021/06/16 12:26:06;;;;;;;3.95;3.55;;;;;;;;;;5132287;28;20204;-67
2021/06/16 12:28:34;;;;;;;4.80;4.30;;;;;;;;;;5127802;28;20192;-66
2021/06/16 12:31:03;;;;;;;4.65;3.15;;;;;;;;;;5130980;28;20196;-66
2021/06/16 12:33:39;;;;;;;4.18;3.13;;;;;;;;;;5123333;28;20234;-65
2021/06/16 12:36:16;;;;;;;4.00;3.38;;;;;;;;;;5138938;27;20222;-65
2021/06/16 12:38:57;;;;;;;5.28;3.28;;;;;;;;;;5140364;27;20204;-65
2021/06/16 12:41:34;;;;;;;3.53;3.22;;;;;;;;;;5140406;27;20265;-65
2021/06/16 12:44:12;;;;;;;3.75;3.42;;;;;;;;;;5140854;27;20252;-65
2021/06/16 12:47:01;;;;;;;6.32;3.63;;;;;;;;;;5137207;27;20258;-65
2021/06/16 12:49:31;;;;;;;6.40;3.92;;;;;;;;;;5132874;27;20283;-65
2021/06/16 12:52:01;;;;;;;4.30;3.60;;;;;;;;;;5139870;27;20245;-65
2021/06/16 12:54:30;;;;;;;6.97;3.65;;;;;;;;;;5138695;27;20279;-65
2021/06/16 12:57:03;;;;;;;5.55;3.80;;;;;;;;;;5137268;27;20196;-65
2021/06/16 12:59:35;;;;;;;3.97;3.25;;;;;;;;;;5140742;27;20272;-65
2021/06/16 13:02:03;;;;;;;4.68;3.53;;;;;;;;;;5140040;27;20721;-68
2021/06/16 13:04:44;;;;;;;3.55;3.25;;;;;;;;;;5140322;27;20580;-68
2021/06/16 13:07:12;;;;;;;3.83;3.53;;;;;;;;;;5141032;27;20260;-68
2021/06/16 13:09:40;;;;;;;4.18;2.97;;;;;;;;;;5129584;27;20644;-68
2021/06/16 13:12:10;;;;;;;3.80;3.60;;;;;;;;;;5133837;27;20622;-68
2021/06/16 13:14:41;;;;;;;4.40;3.55;;;;;;;;;;5140741;27;20230;-68
2021/06/16 13:17:09;;;;;;;3.60;3.30;;;;;;;;;;5140143;27;20206;-68
2021/06/16 13:19:52;;;;;;;3.88;3.47;;;;;;;;;;5141374;27;20212;-68
2021/06/16 13:22:30;;;;;;;4.65;3.65;;;;;;;;;;5140173;27;20215;-68
2021/06/16 13:24:59;;;;;;;6.13;3.63;;;;;;;;;;5141457;27;20227;-68
2021/06/16 13:27:29;;;;;;;3.90;3.60;;;;;;;;;;5131809;27;20203;-67
2021/06/16 13:30:00;;;;;;;3.90;3.60;;;;;;;;;;5140191;27;20230;-67
2021/06/16 13:32:38;;;;;;;3.88;3.58;;;;;;;;;;5140355;27;20239;-70
2021/06/16 13:35:06;;;;;;;3.70;3.42;;;;;;;;;;5135456;27;20598;-68
2021/06/16 13:37:34;;;;;;;4.53;3.90;;;;;;;;;;5131777;27;20211;-68
2021/06/16 13:40:02;;;;;;;3.22;3.03;;;;;;;;;;5133397;27;20199;-68
2021/06/16 13:42:31;;;;;;;4.97;3.40;;;;;;;;;;5131679;27;20216;-69
2021/06/16 13:44:59;;;;;;;5.57;3.35;;;;;;;;;;5138041;27;20216;-68
2021/06/16 13:47:27;;;;;;;6.22;3.28;;;;;;;;;;5139107;27;20204;-68
2021/06/16 13:49:54;;;;;;;3.45;3.03;;;;;;;;;;5140049;27;20211;-69
2021/06/16 13:52:22;;;;;;;4.32;2.88;;;;;;;;;;5139225;27;20269;-69
2021/06/16 13:54:50;;;;;;;3.25;3.05;;;;;;;;;;5140339;27;20208;-68
2021/06/16 13:57:18;;;;;;;3.85;3.10;;;;;;;;;;5137083;27;20574;-68
2021/06/16 13:59:47;;;;;;;3.80;3.40;;;;;;;;;;5131278;27;20204;-68
2021/06/16 14:02:15;;;;;;;4.05;2.75;;;;;;;;;;5132044;27;20216;-68
2021/06/16 14:04:42;;;;;;;4.05;2.72;;;;;;;;;;5132612;27;20220;-67
2021/06/16 14:07:10;;;;;;;5.03;2.80;;;;;;;;;;5133145;27;20196;-67
2021/06/16 14:09:38;;;;;;;3.38;2.97;;;;;;;;;;5133188;27;20204;-66
2021/06/16 14:12:06;;;;;;;4.07;3.08;;;;;;;;;;5132822;27;20620;-68
2021/06/16 14:14:34;;;;;;;7.25;3.28;;;;;;;;;;5132557;27;20729;-68
2021/06/16 14:17:03;;;;;;;3.58;3.28;;;;;;;;;;5133306;27;20643;-68
2021/06/16 14:19:31;;;;;;;3.47;3.28;;;;;;;;;;5135392;27;20204;-67
2021/06/16 14:21:59;;;;;;;5.13;3.35;;;;;;;;;;5131731;27;20215;-67
2021/06/16 14:24:26;;;;;;;2.90;2.70;;;;;;;;;;5129653;27;20203;-66
2021/06/16 14:26:54;;;;;;;3.85;2.88;;;;;;;;;;5134536;27;20313;-68
2021/06/16 14:29:22;;;;;;;3.70;2.88;;;;;;;;;;5132699;27;20223;-68
2021/06/16 14:31:50;;;;;;;3.20;2.92;;;;;;;;;;5132623;27;20236;-67
2021/06/16 14:34:19;;;;;;;5.80;3.15;;;;;;;;;;5135428;27;20203;-68
2021/06/16 14:36:47;;;;;;;4.20;2.67;;;;;;;;;;5135480;27;20229;-68
2021/06/16 14:39:15;;;;;;;5.88;3.42;;;;;;;;;;5130478;27;20628;-68
2021/06/16 14:41:43;;;;;;;3.25;2.95;;;;;;;;;;5132582;27;20302;-68
2021/06/16 14:44:11;;;;;;;3.13;2.83;;;;;;;;;;5133706;27;20631;-68
2021/06/16 14:46:38;;;;;;;3.15;2.72;;;;;;;;;;5130479;27;20226;-66
2021/06/16 14:49:06;;;;;;;4.22;3.47;;;;;;;;;;5131894;27;20196;-68
2021/06/16 14:51:35;;;;;;;6.05;3.20;;;;;;;;;;5129829;27;20228;-68
2021/06/16 14:54:03;;;;;;;6.05;3.17;;;;;;;;;;5130266;27;20278;-69
2021/06/16 14:56:31;;;;;;;4.15;3.10;;;;;;;;;;5132420;27;20292;-68
2021/06/16 14:58:59;;;;;;;7.43;2.53;;;;;;;;;;5134845;27;20256;-69